Time;durP1;ratioP1;P1;durP2;ratioP2;P2;SDS_P1;SDS_P2;PMS_P1;PMS_P2;Temp;Humidity;BMP_temperature;BMP_pressure;BME280_temperature;BME280_humidity;BME280_pressure;Samples;Min_cycle;Max_cycle;Signal;HPM_P1;HPM_P2
2022/03/16 00:00:21;;;;;;;22.45;7.93;;;8.40;99.90;;;;;;5006612;28;20053;-56
2022/03/16 00:02:50;;;;;;;23.48;8.68;;;8.40;99.90;;;;;;5023632;28;20061;-57
2022/03/16 00:05:17;;;;;;;20.25;7.10;;;8.40;99.90;;;;;;5018977;28;20490;-56
2022/03/16 00:07:45;;;;;;;24.65;8.15;;;8.40;99.90;;;;;;5006142;28;20049;-57
2022/03/16 00:10:13;;;;;;;22.63;8.55;;;8.40;99.90;;;;;;5022889;28;20034;-57
2022/03/16 00:12:45;;;;;;;21.45;8.43;;;8.30;99.90;;;;;;5027683;28;20042;-57
2022/03/16 00:15:12;;;;;;;22.58;8.57;;;8.30;99.90;;;;;;4993209;28;20332;-57
2022/03/16 00:17:40;;;;;;;17.92;8.57;;;8.30;99.90;;;;;;5010990;28;20496;-57
2022/03/16 00:20:08;;;;;;;22.77;8.90;;;8.30;99.90;;;;;;5025580;28;20050;-56
2022/03/16 00:22:36;;;;;;;22.35;8.45;;;8.20;99.90;;;;;;5008202;28;20061;-57
2022/03/16 00:25:05;;;;;;;20.95;8.65;;;8.20;99.90;;;;;;5025849;28;20058;-56
2022/03/16 00:27:36;;;;;;;20.42;8.68;;;8.30;99.90;;;;;;5027407;28;20041;-56
2022/03/16 00:30:05;;;;;;;17.20;8.25;;;8.20;99.90;;;;;;5009810;28;20065;-56
2022/03/16 00:32:32;;;;;;;19.08;8.77;;;8.30;99.90;;;;;;5010451;28;20052;-56
2022/03/16 00:35:02;;;;;;;;;;;8.30;99.90;;;;;;4986412;28;20061;-56
2022/03/16 00:37:32;;;;;;;20.02;7.95;;;8.20;99.90;;;;;;5020939;28;20266;-56
2022/03/16 00:40:01;;;;;;;20.98;8.48;;;8.30;99.90;;;;;;5025375;28;20053;-56
2022/03/16 00:42:29;;;;;;;26.27;9.45;;;8.30;99.90;;;;;;5027267;28;20485;-56
2022/03/16 00:44:57;;;;;;;20.33;8.45;;;8.30;99.90;;;;;;5024744;28;20195;-55
2022/03/16 00:47:25;;;;;;;22.48;9.75;;;8.30;99.90;;;;;;5026586;28;20052;-56
2022/03/16 00:49:52;;;;;;;24.13;8.98;;;8.30;99.90;;;;;;5016985;28;20049;-56
2022/03/16 00:52:20;;;;;;;21.13;10.00;;;8.30;99.90;;;;;;5023985;28;20046;-56
2022/03/16 00:54:47;;;;;;;21.55;9.68;;;8.30;99.90;;;;;;5026839;28;20057;-56
2022/03/16 00:57:15;;;;;;;29.02;10.43;;;8.30;99.90;;;;;;5026590;28;20053;-56
2022/03/16 00:59:43;;;;;;;23.77;11.00;;;8.40;99.90;;;;;;5026588;28;20049;-56
2022/03/16 01:02:10;;;;;;;23.30;10.52;;;8.40;99.90;;;;;;5026417;28;20042;-56
2022/03/16 01:04:38;;;;;;;20.80;10.40;;;8.40;99.90;;;;;;5028520;28;20474;-60
2022/03/16 01:07:06;;;;;;;31.45;10.55;;;8.40;99.90;;;;;;5005037;28;20067;-56
2022/03/16 01:09:34;;;;;;;28.05;11.07;;;8.40;99.90;;;;;;5026006;28;20046;-55
2022/03/16 01:12:07;;;;;;;25.77;11.07;;;8.40;99.90;;;;;;5027225;28;20493;-56
2022/03/16 01:14:35;;;;;;;26.15;10.50;;;8.40;99.90;;;;;;5023870;28;20524;-57
2022/03/16 01:17:03;;;;;;;20.55;10.23;;;8.40;99.90;;;;;;5027083;28;20428;-56
2022/03/16 01:19:34;;;;;;;22.02;10.48;;;8.40;99.90;;;;;;5012775;28;20500;-57
2022/03/16 01:22:04;;;;;;;27.02;10.25;;;8.40;99.90;;;;;;5018435;28;20072;-55
2022/03/16 01:24:33;;;;;;;27.98;11.38;;;8.40;99.90;;;;;;5025447;28;20045;-55
2022/03/16 01:27:01;;;;;;;23.15;10.60;;;8.30;99.90;;;;;;5025034;28;20053;-55
2022/03/16 01:29:31;;;;;;;;;;;8.30;99.90;;;;;;5016570;28;20058;-56
2022/03/16 01:31:59;;;;;;;31.17;11.60;;;8.30;99.90;;;;;;5006450;28;19932;-56
2022/03/16 01:34:26;;;;;;;26.83;11.60;;;8.30;99.90;;;;;;5006262;28;20050;-61
2022/03/16 01:36:54;;;;;;;22.85;11.77;;;8.20;99.90;;;;;;5002371;28;20135;-56
2022/03/16 01:39:22;;;;;;;30.58;12.45;;;8.20;99.90;;;;;;5005465;28;20038;-56
2022/03/16 01:41:50;;;;;;;21.23;11.68;;;8.20;99.90;;;;;;5000935;28;20053;-56
2022/03/16 01:44:48;;;;;;;34.58;14.05;;;8.20;99.90;;;;;;5005205;28;20046;-56
2022/03/16 01:47:18;;;;;;;22.92;12.68;;;8.20;99.90;;;;;;5004305;28;20061;-57
2022/03/16 01:49:47;;;;;;;25.33;11.65;;;8.20;99.90;;;;;;5008564;28;20049;-57
2022/03/16 01:52:19;;;;;;;34.78;14.15;;;8.20;99.90;;;;;;4995183;28;20042;-57
2022/03/16 01:54:48;;;;;;;29.27;12.85;;;8.10;99.90;;;;;;5009041;28;20052;-57
2022/03/16 01:57:16;;;;;;;27.75;13.20;;;8.20;99.90;;;;;;5007853;28;20037;-56
2022/03/16 01:59:45;;;;;;;24.30;12.68;;;8.20;99.90;;;;;;4991378;28;20056;-58
2022/03/16 02:02:15;;;;;;;31.77;14.02;;;8.10;99.90;;;;;;5008022;28;20524;-55
2022/03/16 02:04:43;;;;;;;26.42;12.82;;;8.10;99.90;;;;;;5006836;28;20405;-56
2022/03/16 02:07:11;;;;;;;29.17;13.35;;;8.10;99.90;;;;;;5001363;28;20050;-57
2022/03/16 02:09:39;;;;;;;30.75;13.77;;;8.10;99.90;;;;;;5008814;28;20046;-56
2022/03/16 02:12:10;;;;;;;32.50;15.48;;;8.10;99.90;;;;;;5009186;28;20042;-57
2022/03/16 02:14:38;;;;;;;32.28;14.18;;;8.10;99.90;;;;;;5008862;28;20393;-57
2022/03/16 02:17:05;;;;;;;30.15;14.93;;;8.10;99.90;;;;;;5008890;28;20053;-58
2022/03/16 02:19:34;;;;;;;27.50;13.38;;;8.10;99.90;;;;;;5008602;28;20046;-56
2022/03/16 02:22:04;;;;;;;24.38;13.88;;;8.10;99.90;;;;;;5006332;28;20042;-56
2022/03/16 02:24:32;;;;;;;32.05;13.75;;;8.10;99.90;;;;;;5008435;28;20052;-57
2022/03/16 02:27:00;;;;;;;31.45;13.27;;;8.00;99.90;;;;;;5008747;28;20048;-57
2022/03/16 02:29:28;;;;;;;32.40;14.35;;;8.00;99.90;;;;;;5019348;28;20061;-57
2022/03/16 02:31:55;;;;;;;35.38;15.32;;;8.00;99.90;;;;;;5017730;28;20045;-57
2022/03/16 02:34:23;;;;;;;30.33;14.52;;;8.00;99.90;;;;;;5026433;28;20513;-57
2022/03/16 02:36:51;;;;;;;32.42;14.93;;;7.90;99.90;;;;;;5024002;28;20076;-57
2022/03/16 02:39:19;;;;;;;31.75;14.40;;;7.90;99.90;;;;;;5030959;28;20045;-57
2022/03/16 02:41:48;;;;;;;39.08;16.35;;;7.90;99.90;;;;;;5031736;28;20473;-57
2022/03/16 02:44:15;;;;;;;32.17;16.85;;;7.90;99.90;;;;;;5031024;28;20239;-57
2022/03/16 02:46:43;;;;;;;32.55;15.40;;;7.90;99.90;;;;;;5028328;28;20048;-57
2022/03/16 02:49:11;;;;;;;30.77;15.13;;;7.80;99.90;;;;;;5031331;28;20041;-56
2022/03/16 02:51:38;;;;;;;31.17;16.20;;;7.80;99.90;;;;;;5013473;28;20053;-55
2022/03/16 02:54:06;;;;;;;34.25;17.77;;;7.80;99.90;;;;;;5031366;28;20045;-57
2022/03/16 02:56:34;;;;;;;34.55;15.82;;;7.80;99.90;;;;;;5029338;28;20042;-56
2022/03/16 02:59:02;;;;;;;35.22;16.55;;;7.80;99.90;;;;;;5030815;28;20049;-57
2022/03/16 03:01:30;;;;;;;33.50;16.08;;;7.80;99.90;;;;;;5031317;28;20056;-57
2022/03/16 03:03:58;;;;;;;37.85;17.23;;;7.80;99.90;;;;;;5030201;28;20045;-56
2022/03/16 03:06:27;;;;;;;35.75;16.60;;;7.80;99.90;;;;;;5031055;28;20424;-56
2022/03/16 03:08:55;;;;;;;39.13;17.67;;;7.80;99.90;;;;;;5030977;28;20066;-56
2022/03/16 03:11:22;;;;;;;33.67;17.20;;;7.80;99.90;;;;;;5031023;28;20041;-56
2022/03/16 03:13:50;;;;;;;38.13;18.05;;;7.80;99.90;;;;;;5016785;28;20053;-56
2022/03/16 03:16:17;;;;;;;35.28;16.80;;;7.80;99.90;;;;;;5030791;28;20049;-57
2022/03/16 03:18:45;;;;;;;39.67;18.92;;;7.70;99.90;;;;;;5013585;28;20049;-57
2022/03/16 03:21:13;;;;;;;36.03;17.58;;;7.80;99.90;;;;;;5031114;28;20045;-56
2022/03/16 03:23:42;;;;;;;38.95;17.75;;;7.70;99.90;;;;;;5030353;28;20037;-56
2022/03/16 03:26:10;;;;;;;35.38;17.70;;;7.70;99.90;;;;;;5030977;28;20045;-56
2022/03/16 03:28:38;;;;;;;32.28;16.98;;;7.70;99.90;;;;;;5013145;28;20420;-56
2022/03/16 03:31:05;;;;;;;39.97;17.23;;;7.70;99.90;;;;;;5031230;28;20500;-56
2022/03/16 03:33:38;;;;;;;37.20;18.48;;;7.70;99.90;;;;;;5030209;28;20054;-56
2022/03/16 03:36:05;;;;;;;42.30;18.63;;;7.70;99.90;;;;;;5012573;28;20049;-56
2022/03/16 03:38:33;;;;;;;41.00;19.30;;;7.70;99.90;;;;;;5030364;28;20048;-56
2022/03/16 03:41:02;;;;;;;36.05;18.40;;;7.70;99.90;;;;;;5030830;28;20049;-56
2022/03/16 03:43:30;;;;;;;40.22;18.95;;;7.70;99.90;;;;;;5031222;28;20041;-56
2022/03/16 03:45:58;;;;;;;36.22;19.80;;;7.70;99.90;;;;;;5017423;28;20077;-56
2022/03/16 03:48:25;;;;;;;33.03;18.67;;;7.70;99.90;;;;;;5034570;28;20044;-56
2022/03/16 03:50:53;;;;;;;42.50;20.20;;;7.60;99.90;;;;;;5033937;28;20453;-56
2022/03/16 03:53:21;;;;;;;38.45;19.25;;;7.70;99.90;;;;;;5033988;28;20049;-56
2022/03/16 03:55:49;;;;;;;39.63;19.80;;;7.70;99.90;;;;;;5022028;28;20053;-57
2022/03/16 03:58:16;;;;;;;44.90;19.80;;;7.60;99.90;;;;;;5034339;28;20048;-57
2022/03/16 04:00:44;;;;;;;40.75;20.65;;;7.60;99.90;;;;;;5034163;28;20045;-57
2022/03/16 04:03:12;;;;;;;41.35;19.92;;;7.60;99.90;;;;;;5034485;28;20042;-56
2022/03/16 04:05:39;;;;;;;42.65;21.77;;;7.60;99.90;;;;;;5014388;28;20046;-57
2022/03/16 04:08:07;;;;;;;44.55;21.02;;;7.60;99.90;;;;;;5034306;28;20042;-56
2022/03/16 04:10:36;;;;;;;46.15;21.35;;;7.60;99.90;;;;;;5034173;28;20417;-57
2022/03/16 04:13:04;;;;;;;44.22;21.27;;;7.50;99.90;;;;;;5034239;28;20045;-57
2022/03/16 04:15:32;;;;;;;43.75;20.35;;;7.50;99.90;;;;;;5034042;28;20056;-57
2022/03/16 04:18:00;;;;;;;42.50;22.70;;;7.60;99.90;;;;;;5034182;28;20041;-58
2022/03/16 04:20:27;;;;;;;40.55;20.58;;;7.50;99.90;;;;;;5016840;28;20045;-58
2022/03/16 04:22:55;;;;;;;48.08;22.75;;;7.50;99.90;;;;;;5034167;28;20045;-56
2022/03/16 04:25:22;;;;;;;40.85;19.98;;;7.50;99.90;;;;;;5033341;28;20045;-58
2022/03/16 04:27:50;;;;;;;44.35;19.80;;;7.40;99.90;;;;;;5033760;28;20068;-56
2022/03/16 04:30:18;;;;;;;42.80;21.85;;;7.40;99.90;;;;;;5034018;28;20049;-57
2022/03/16 04:32:51;;;;;;;43.70;21.13;;;7.40;99.90;;;;;;5033420;28;20049;-58
2022/03/16 04:35:20;;;;;;;40.72;20.90;;;7.30;99.90;;;;;;5034197;28;20063;-58
2022/03/16 04:37:48;;;;;;;41.72;19.90;;;7.30;99.90;;;;;;5033843;28;20049;-58
2022/03/16 04:40:16;;;;;;;42.25;21.05;;;7.30;99.90;;;;;;5032730;28;20049;-56
2022/03/16 04:42:43;;;;;;;47.97;22.00;;;7.30;99.90;;;;;;5033202;28;20046;-57
2022/03/16 04:45:12;;;;;;;48.08;21.30;;;7.30;99.90;;;;;;5033696;28;20049;-57
2022/03/16 04:47:40;;;;;;;52.30;23.43;;;7.30;99.90;;;;;;5033567;28;20052;-58
2022/03/16 04:50:08;;;;;;;46.78;21.77;;;7.30;99.90;;;;;;5019456;28;20497;-59
2022/03/16 04:52:47;;;;;;;57.03;25.60;;;7.30;99.90;;;;;;5033552;28;20046;-59
2022/03/16 04:55:15;;;;;;;42.17;21.30;;;7.40;99.90;;;;;;5032312;28;20433;-58
2022/03/16 04:57:43;;;;;;;42.53;22.30;;;7.40;99.90;;;;;;5033207;28;20045;-58
2022/03/16 05:00:11;;;;;;;40.70;20.23;;;7.40;99.90;;;;;;5032774;28;20068;-58
2022/03/16 05:02:39;;;;;;;46.58;20.83;;;7.30;99.90;;;;;;5033208;28;20042;-58
2022/03/16 05:05:08;;;;;;;41.70;21.10;;;7.30;99.90;;;;;;5033446;28;20045;-58
2022/03/16 05:07:37;;;;;;;43.42;22.58;;;7.30;99.90;;;;;;5033354;28;20061;-57
2022/03/16 05:10:06;;;;;;;40.57;20.00;;;7.30;99.90;;;;;;5033197;28;20053;-57
2022/03/16 05:12:42;;;;;;;43.28;22.10;;;7.20;99.90;;;;;;5032481;28;20068;-56
2022/03/16 05:15:17;;;;;;;48.42;22.85;;;7.20;99.90;;;;;;5030452;28;20038;-56
2022/03/16 05:17:45;;;;;;;46.63;22.00;;;7.20;99.90;;;;;;5032620;28;20064;-56
2022/03/16 05:20:15;;;;;;;49.22;23.73;;;7.20;99.90;;;;;;5033111;28;20476;-56
2022/03/16 05:22:47;;;;;;;43.22;23.20;;;7.20;99.90;;;;;;5032797;28;20362;-55
2022/03/16 05:25:18;;;;;;;54.75;25.00;;;7.20;99.90;;;;;;5033086;28;20049;-55
2022/03/16 05:27:46;;;;;;;49.78;25.60;;;7.20;99.90;;;;;;5024800;28;20046;-55
2022/03/16 05:30:14;;;;;;;54.17;25.58;;;7.20;99.90;;;;;;5032777;28;20045;-56
2022/03/16 05:32:42;;;;;;;53.03;25.67;;;7.20;99.90;;;;;;5019706;28;20045;-56
2022/03/16 05:35:12;;;;;;;51.60;23.60;;;7.30;99.90;;;;;;5032861;28;20041;-55
2022/03/16 05:37:40;;;;;;;48.67;23.48;;;7.30;99.90;;;;;;5032248;28;20049;-57
2022/03/16 05:40:10;;;;;;;56.00;25.80;;;7.30;99.90;;;;;;5032772;28;20041;-56
2022/03/16 05:42:37;;;;;;;49.40;24.55;;;7.40;99.90;;;;;;5031253;28;20053;-56
2022/03/16 05:45:06;;;;;;;53.55;26.15;;;7.40;99.90;;;;;;5032760;28;20056;-56
2022/03/16 05:47:34;;;;;;;44.20;23.80;;;7.40;99.90;;;;;;5025932;28;20038;-56
2022/03/16 05:50:03;;;;;;;57.45;23.90;;;7.40;99.90;;;;;;5014075;28;20049;-56
2022/03/16 05:52:35;;;;;;;51.90;25.73;;;7.40;99.90;;;;;;5015854;28;20052;-56
2022/03/16 05:55:07;;;;;;;55.80;25.35;;;7.40;99.90;;;;;;5028416;28;20049;-57
2022/03/16 05:57:37;;;;;;;52.22;24.42;;;7.40;99.90;;;;;;5028187;28;20034;-56
2022/03/16 06:00:08;;;;;;;49.03;24.13;;;7.40;99.90;;;;;;5028317;28;20405;-57
2022/03/16 06:02:35;;;;;;;47.15;23.85;;;7.40;99.90;;;;;;5020357;28;20041;-56
2022/03/16 06:05:03;;;;;;;56.28;26.30;;;7.40;99.90;;;;;;5026087;28;20042;-56
2022/03/16 06:07:31;;;;;;;58.55;25.65;;;7.40;99.90;;;;;;5025292;28;20044;-56
2022/03/16 06:10:00;;;;;;;53.50;25.90;;;7.30;99.90;;;;;;5028213;28;20517;-56
2022/03/16 06:12:27;;;;;;;59.33;24.63;;;7.30;99.90;;;;;;5028316;28;20041;-56
2022/03/16 06:14:55;;;;;;;49.17;24.45;;;7.40;99.90;;;;;;5028550;28;20037;-56
2022/03/16 06:17:23;;;;;;;56.97;25.95;;;7.40;99.90;;;;;;5028801;28;20053;-55
2022/03/16 06:19:51;;;;;;;53.85;25.85;;;7.40;99.90;;;;;;5028800;28;20057;-55
2022/03/16 06:22:18;;;;;;;64.30;28.80;;;7.40;99.90;;;;;;5005379;28;20049;-55
2022/03/16 06:24:46;;;;;;;48.53;25.58;;;7.40;99.90;;;;;;5024166;28;20064;-56
2022/03/16 06:27:13;;;;;;;56.70;25.25;;;7.40;99.90;;;;;;5018322;28;20058;-56
2022/03/16 06:29:41;;;;;;;61.03;26.90;;;7.40;99.90;;;;;;5024986;28;20054;-56
2022/03/16 06:32:09;;;;;;;53.20;26.65;;;7.40;99.90;;;;;;5005713;28;20046;-57
2022/03/16 06:34:36;;;;;;;53.03;26.00;;;7.40;99.90;;;;;;5028149;28;20045;-57
2022/03/16 06:37:04;;;;;;;57.92;27.33;;;7.40;99.90;;;;;;5028414;28;20516;-57
2022/03/16 06:39:32;;;;;;;53.75;26.63;;;7.40;99.90;;;;;;5022756;28;20049;-57
2022/03/16 06:41:59;;;;;;;62.20;27.50;;;7.40;99.90;;;;;;5011058;28;20049;-57
2022/03/16 06:44:27;;;;;;;50.95;25.52;;;7.40;99.90;;;;;;5021966;28;20352;-57
2022/03/16 06:46:55;;;;;;;55.95;26.30;;;7.40;99.90;;;;;;5026437;28;20041;-56
2022/03/16 06:49:23;;;;;;;53.47;26.63;;;7.40;99.90;;;;;;5027605;28;20045;-56
2022/03/16 06:51:51;;;;;;;58.92;26.27;;;7.50;99.90;;;;;;5028320;28;20056;-55
2022/03/16 06:54:18;;;;;;;57.38;27.65;;;7.50;99.90;;;;;;5010043;28;20552;-57
2022/03/16 06:56:46;;;;;;;55.60;26.25;;;7.60;99.90;;;;;;5024818;28;20049;-56
2022/03/16 06:59:14;;;;;;;53.38;26.30;;;7.60;99.90;;;;;;5022659;28;20045;-57
2022/03/16 07:01:46;;;;;;;55.72;26.70;;;7.60;99.90;;;;;;5025236;28;20037;-57
2022/03/16 07:04:14;;;;;;;66.43;27.33;;;7.60;99.90;;;;;;5024032;28;20046;-57
2022/03/16 07:06:41;;;;;;;54.67;27.20;;;7.70;99.90;;;;;;5025829;28;20053;-57
2022/03/16 07:09:09;;;;;;;61.83;27.42;;;7.70;99.90;;;;;;5024119;28;20117;-57
2022/03/16 07:11:36;;;;;;;60.35;27.42;;;7.80;99.90;;;;;;5027618;28;20041;-58
2022/03/16 07:16:50;;;;;;;55.30;26.27;;;7.80;99.90;;;;;;5024667;28;20045;-57
2022/03/16 07:19:18;;;;;;;57.35;27.80;;;7.90;99.90;;;;;;5029095;28;20050;-57
2022/03/16 07:21:46;;;;;;;62.08;27.58;;;7.90;99.90;;;;;;5029378;28;20048;-57
2022/03/16 07:24:14;;;;;;;54.67;27.05;;;7.90;99.90;;;;;;5015389;28;20050;-58
2022/03/16 07:26:43;;;;;;;54.75;27.52;;;8.00;99.90;;;;;;5011092;28;20065;-56
2022/03/16 07:29:10;;;;;;;53.03;27.77;;;8.10;99.90;;;;;;5029444;28;20085;-56
2022/03/16 07:31:38;;;;;;;58.30;27.90;;;8.10;99.90;;;;;;5031507;28;20064;-57
2022/03/16 07:34:05;;;;;;;62.08;27.23;;;8.10;99.90;;;;;;5017035;28;20050;-57
2022/03/16 07:36:34;;;;;;;52.20;25.88;;;8.10;99.90;;;;;;5028654;28;20045;-58
2022/03/16 07:39:01;;;;;;;58.38;27.35;;;8.20;99.90;;;;;;5025601;28;20046;-57
2022/03/16 07:41:29;;;;;;;56.53;26.63;;;8.20;99.90;;;;;;5026861;28;20052;-57
2022/03/16 07:43:57;;;;;;;56.17;26.48;;;8.20;99.90;;;;;;5028292;28;20049;-57
2022/03/16 07:46:25;;;;;;;52.78;25.77;;;8.30;99.90;;;;;;5030123;28;20064;-57
2022/03/16 07:48:52;;;;;;;53.08;26.05;;;8.30;99.90;;;;;;5031179;28;20046;-55
2022/03/16 07:51:20;;;;;;;52.65;25.88;;;8.40;99.90;;;;;;5029809;28;20045;-56
2022/03/16 07:53:48;;;;;;;57.65;26.30;;;8.40;99.90;;;;;;5016129;28;20054;-56
2022/03/16 07:56:16;;;;;;;55.38;28.48;;;8.40;99.90;;;;;;4996148;28;20049;-57
2022/03/16 07:58:45;;;;;;;63.22;29.60;;;8.40;99.90;;;;;;5027515;28;20053;-55
2022/03/16 08:01:13;;;;;;;63.72;29.55;;;8.40;99.90;;;;;;5027590;28;20049;-56
2022/03/16 08:03:41;;;;;;;58.63;28.83;;;8.40;99.90;;;;;;5027599;28;20273;-56
2022/03/16 08:06:09;;;;;;;64.78;30.02;;;8.50;99.90;;;;;;5026675;28;20064;-57
2022/03/16 08:08:39;;;;;;;52.35;27.30;;;8.50;99.90;;;;;;5024130;28;20497;-57
2022/03/16 08:11:07;;;;;;;58.75;29.23;;;8.60;99.90;;;;;;5024604;28;20041;-56
2022/03/16 08:13:36;;;;;;;61.83;27.88;;;8.60;99.90;;;;;;5007923;28;20052;-57
2022/03/16 08:16:05;;;;;;;65.60;28.13;;;8.70;99.90;;;;;;5025704;28;20485;-58
2022/03/16 08:18:34;;;;;;;56.17;27.10;;;8.70;99.90;;;;;;5025787;28;20058;-57
2022/03/16 08:21:02;;;;;;;59.22;29.13;;;8.80;99.90;;;;;;5027553;28;20080;-58
2022/03/16 08:23:30;;;;;;;54.00;27.10;;;8.80;99.90;;;;;;5022939;28;20449;-58
2022/03/16 08:25:58;;;;;;;55.67;28.65;;;8.90;99.90;;;;;;5016145;28;20057;-57
2022/03/16 08:28:26;;;;;;;64.28;29.98;;;8.90;99.90;;;;;;5017413;28;20053;-57
2022/03/16 08:30:54;;;;;;;65.35;28.40;;;9.00;99.90;;;;;;5017115;28;20056;-57
2022/03/16 08:33:23;;;;;;;59.78;27.05;;;9.00;99.90;;;;;;5017966;28;20893;-56
2022/03/16 08:35:51;;;;;;;64.15;29.27;;;9.10;99.90;;;;;;5009751;28;20046;-56
2022/03/16 08:38:19;;;;;;;60.45;28.42;;;9.10;99.90;;;;;;5018655;28;20658;-56
2022/03/16 08:40:47;;;;;;;56.47;27.70;;;9.20;99.90;;;;;;5009356;28;20065;-56
2022/03/16 08:43:14;;;;;;;63.88;28.60;;;9.20;99.90;;;;;;5014528;28;20397;-56
2022/03/16 08:45:42;;;;;;;57.80;28.25;;;9.20;99.90;;;;;;5029608;28;20249;-57
2022/03/16 08:48:10;;;;;;;62.85;29.70;;;9.20;99.90;;;;;;5030634;28;20056;-57
2022/03/16 08:50:38;;;;;;;61.25;29.52;;;9.10;99.90;;;;;;5030575;28;20045;-56
2022/03/16 08:53:05;;;;;;;62.03;29.23;;;9.10;99.90;;;;;;5030903;28;20053;-56
2022/03/16 08:55:33;;;;;;;55.40;28.88;;;9.10;99.90;;;;;;5012574;28;20042;-57
2022/03/16 08:58:01;;;;;;;66.07;30.20;;;9.00;99.90;;;;;;5017868;28;20037;-57
2022/03/16 09:00:28;;;;;;;63.72;28.70;;;9.00;99.90;;;;;;5030711;28;20038;-57
2022/03/16 09:02:56;;;;;;;68.13;31.42;;;9.00;99.90;;;;;;5030533;28;20764;-58
2022/03/16 09:05:24;;;;;;;70.10;32.10;;;9.00;99.90;;;;;;5030289;28;20417;-57
2022/03/16 09:07:52;;;;;;;71.32;31.48;;;8.90;99.90;;;;;;5012282;28;20054;-57
2022/03/16 09:10:20;;;;;;;67.78;29.95;;;9.00;99.90;;;;;;5015020;28;20053;-57
2022/03/16 09:12:48;;;;;;;69.18;31.38;;;8.90;99.90;;;;;;5011719;28;20060;-57
2022/03/16 09:15:16;;;;;;;74.30;31.00;;;8.90;99.90;;;;;;5012701;28;20045;-57
2022/03/16 09:17:44;;;;;;;74.65;34.15;;;8.90;99.90;;;;;;4993715;28;20045;-57
2022/03/16 09:20:12;;;;;;;80.72;35.00;;;8.90;99.90;;;;;;5030139;28;20420;-57
2022/03/16 09:22:39;;;;;;;75.95;33.03;;;8.80;99.90;;;;;;5030251;28;20604;-57
2022/03/16 09:25:07;;;;;;;76.88;33.05;;;8.80;99.90;;;;;;5018016;28;20045;-57
2022/03/16 09:27:35;;;;;;;76.40;33.30;;;8.80;99.90;;;;;;5014267;28;20041;-56
2022/03/16 09:30:05;;;;;;;82.95;33.70;;;8.80;99.90;;;;;;5029965;28;20053;-56
2022/03/16 09:32:33;;;;;;;74.50;33.38;;;8.80;99.90;;;;;;5029901;28;20060;-57
2022/03/16 09:35:01;;;;;;;80.18;34.85;;;8.80;99.90;;;;;;5029845;28;20049;-57
2022/03/16 09:37:29;;;;;;;75.05;35.78;;;8.80;99.90;;;;;;4995759;28;20060;-56
2022/03/16 09:39:56;;;;;;;90.82;36.17;;;8.80;99.90;;;;;;5019821;28;20057;-57
2022/03/16 09:42:25;;;;;;;80.80;34.72;;;8.80;99.90;;;;;;5009413;28;20046;-56
2022/03/16 09:44:53;;;;;;;83.88;34.70;;;8.80;99.90;;;;;;5027935;28;20060;-55
2022/03/16 09:47:22;;;;;;;77.25;34.40;;;8.90;99.90;;;;;;5029272;28;20504;-56
2022/03/16 09:49:51;;;;;;;80.05;32.13;;;8.90;99.90;;;;;;5029715;28;20052;-57
2022/03/16 09:52:19;;;;;;;78.20;33.60;;;8.90;99.90;;;;;;5011784;28;20053;-56
2022/03/16 09:54:48;;;;;;;85.80;35.03;;;8.90;99.90;;;;;;5021919;28;20042;-56
2022/03/16 09:57:16;;;;;;;81.55;33.75;;;8.90;99.90;;;;;;5010559;28;20061;-56
2022/03/16 09:59:44;;;;;;;81.50;34.35;;;8.90;99.90;;;;;;4995678;28;20057;-57
2022/03/16 10:02:16;;;;;;;78.57;33.17;;;8.90;99.90;;;;;;5029552;28;20053;-57
2022/03/16 10:04:47;;;;;;;78.55;34.17;;;9.00;99.90;;;;;;5029097;28;20054;-58
2022/03/16 10:07:15;;;;;;;77.43;33.55;;;9.00;99.90;;;;;;5011369;28;20523;-57
2022/03/16 10:15:19;;;;;;;88.57;36.15;;;9.10;99.90;;;;;;5009242;28;20069;-58
2022/03/16 10:17:48;;;;;;;84.95;35.88;;;9.10;99.90;;;;;;5013398;28;20068;-57
2022/03/16 10:20:27;;;;;;;85.97;36.67;;;9.20;99.90;;;;;;5008587;28;20858;-57
2022/03/16 10:23:00;;;;;;;90.32;35.90;;;9.30;99.90;;;;;;5026778;28;20053;-57
2022/03/16 10:25:30;;;;;;;87.55;34.80;;;9.40;99.90;;;;;;5017467;28;20049;-57
2022/03/16 10:28:12;;;;;;;86.40;33.53;;;9.60;99.90;;;;;;5016099;28;20053;-56
2022/03/16 10:30:58;;;;;;;63.53;30.38;;;9.70;99.90;;;;;;5028573;28;20041;-56
2022/03/16 10:33:32;;;;;;;67.80;31.92;;;9.90;99.90;;;;;;5025208;28;20054;-57
2022/03/16 10:36:00;;;;;;;76.57;33.15;;;10.00;99.90;;;;;;5026012;28;20397;-56
2022/03/16 10:38:29;;;;;;;65.85;30.45;;;10.10;99.90;;;;;;5028516;28;20049;-56
2022/03/16 10:46:56;;;;;;;52.33;27.55;;;10.20;99.90;;;;;;5028510;28;20050;-57
2022/03/16 10:49:24;;;;;;;52.83;25.95;;;10.20;99.90;;;;;;5028360;28;20049;-57
2022/03/16 10:52:06;;;;;;;59.45;29.42;;;10.20;99.90;;;;;;5010816;28;20050;-57
2022/03/16 10:54:35;;;;;;;61.65;28.65;;;10.20;99.90;;;;;;5026789;28;20060;-57
2022/03/16 10:57:10;;;;;;;59.97;26.85;;;10.20;99.90;;;;;;5008621;28;20056;-57
2022/03/16 10:59:39;;;;;;;57.90;26.50;;;10.20;99.90;;;;;;5008834;28;20049;-57
2022/03/16 11:02:15;;;;;;;52.70;25.48;;;10.20;99.90;;;;;;5008841;28;20086;-57
2022/03/16 11:04:45;;;;;;;50.95;25.70;;;10.20;99.90;;;;;;5024975;28;20477;-56
2022/03/16 11:07:13;;;;;;;45.92;22.83;;;10.20;99.90;;;;;;5028358;28;20429;-57
2022/03/16 11:09:41;;;;;;;45.17;20.85;;;10.20;99.90;;;;;;5026789;28;20075;-57
2022/03/16 11:15:01;;;;;;;40.92;20.35;;;10.40;99.90;;;;;;5027103;28;20050;-57
2022/03/16 11:17:37;;;;;;;40.10;19.30;;;10.50;99.90;;;;;;5025257;28;20041;-57
2022/03/16 11:20:08;;;;;;;36.80;18.35;;;10.60;99.90;;;;;;5028391;28;20053;-57
2022/03/16 11:24:15;;;;;;;40.45;19.52;;;10.60;99.90;;;;;;4993741;28;20060;-57
2022/03/16 11:25:28;;;;;;;37.20;18.90;;;10.70;99.90;;;;;;5021500;28;20049;-57
2022/03/16 11:27:58;;;;;;;39.20;19.80;;;10.80;99.90;;;;;;5015045;28;20061;-57
2022/03/16 11:30:36;;;;;;;39.72;19.33;;;10.80;99.90;;;;;;5028053;28;20053;-58
2022/03/16 11:33:06;;;;;;;42.35;20.13;;;10.80;99.90;;;;;;5028052;28;20049;-58
2022/03/16 11:35:35;;;;;;;44.55;21.98;;;10.80;99.90;;;;;;5028313;28;20417;-56
2022/03/16 11:38:09;;;;;;;47.70;22.13;;;10.80;99.90;;;;;;5028012;28;20048;-57
2022/03/16 11:40:39;;;;;;;41.25;21.38;;;10.80;99.90;;;;;;5020594;28;20042;-58
2022/03/16 11:43:08;;;;;;;40.80;19.55;;;10.80;99.90;;;;;;5011565;28;20046;-58
2022/03/16 11:45:50;;;;;;;36.78;18.90;;;10.80;99.90;;;;;;5027670;28;20404;-57
2022/03/16 11:48:34;;;;;;;36.25;19.45;;;10.70;99.90;;;;;;5027834;28;20052;-57
2022/03/16 11:51:11;;;;;;;40.75;20.42;;;10.80;99.90;;;;;;5027894;28;20041;-58
2022/03/16 11:56:44;;;;;;;43.72;20.73;;;10.80;99.90;;;;;;5016177;28;20045;-59
2022/03/16 11:59:18;;;;;;;41.55;20.98;;;10.80;99.90;;;;;;5024569;28;20053;-57
2022/03/16 12:01:52;;;;;;;41.88;21.73;;;10.80;99.90;;;;;;5027767;28;20504;-57
2022/03/16 12:04:38;;;;;;;42.85;21.95;;;10.80;99.90;;;;;;5027554;28;20049;-58
2022/03/16 12:07:14;;;;;;;46.28;23.80;;;10.80;99.90;;;;;;5031668;28;20382;-57
2022/03/16 12:09:53;;;;;;;48.50;23.85;;;10.80;99.90;;;;;;5013774;28;20045;-58
2022/03/16 12:12:53;;;;;;;42.03;20.05;;;10.70;99.90;;;;;;5008433;28;20052;-57
2022/03/16 12:15:46;;;;;;;58.67;24.90;;;10.70;99.90;;;;;;4985014;28;20062;-57
2022/03/16 12:18:17;;;;;;;50.10;23.20;;;10.60;99.90;;;;;;5020164;28;20053;-58
2022/03/16 12:20:53;;;;;;;40.38;20.85;;;10.70;99.90;;;;;;5031269;28;20065;-57
2022/03/16 12:23:42;;;;;;;41.45;21.77;;;10.50;99.90;;;;;;5031024;28;20485;-57
2022/03/16 12:26:09;;;;;;;47.88;21.85;;;10.50;99.90;;;;;;5023014;28;20048;-57
2022/03/16 12:31:24;;;;;;;51.55;22.25;;;10.50;99.90;;;;;;5031248;28;20045;-58
2022/03/16 12:33:56;;;;;;;44.72;20.73;;;10.40;99.90;;;;;;5012929;28;20050;-57
2022/03/16 12:36:33;;;;;;;42.63;20.83;;;10.40;99.90;;;;;;5030847;28;20338;-58
2022/03/16 12:39:08;;;;;;;45.95;21.58;;;10.40;99.90;;;;;;5030642;28;20050;-58
2022/03/16 12:44:42;;;;;;;48.25;23.35;;;10.40;99.90;;;;;;5024584;28;20421;-57
2022/03/16 12:47:26;;;;;;;44.92;20.45;;;10.30;99.90;;;;;;5030831;28;20045;-57
2022/03/16 12:49:54;;;;;;;52.55;23.05;;;10.30;99.90;;;;;;5030670;28;20049;-58
2022/03/16 12:52:22;;;;;;;50.17;21.73;;;10.30;99.90;;;;;;5030758;28;20046;-56
2022/03/16 12:54:54;;;;;;;42.70;21.30;;;10.20;99.90;;;;;;5030499;28;20057;-56
2022/03/16 12:57:22;;;;;;;56.22;24.05;;;10.20;99.90;;;;;;5014949;28;20042;-57
2022/03/16 12:59:53;;;;;;;55.60;25.83;;;10.10;99.90;;;;;;5030539;28;20060;-56
2022/03/16 13:02:26;;;;;;;55.67;25.27;;;10.10;99.90;;;;;;5012442;28;20045;-57
2022/03/16 13:04:59;;;;;;;48.80;24.35;;;10.00;99.90;;;;;;5030296;28;20058;-56
2022/03/16 13:07:27;;;;;;;56.22;25.08;;;10.00;99.90;;;;;;5012464;28;20049;-57
2022/03/16 13:09:55;;;;;;;54.92;23.63;;;9.90;99.90;;;;;;5030323;28;20057;-56
2022/03/16 13:12:24;;;;;;;46.05;19.83;;;9.90;99.90;;;;;;5014462;28;20041;-56